sensor_id;sensor_type;location;lat;lon;timestamp;temperature;humidity
30572;DHT22;17348;50.948;10.696;2023-04-03T00:00:58;2.00;99.90
30572;DHT22;17348;50.948;10.696;2023-04-03T00:04:01;2.00;99.90
30572;DHT22;17348;50.948;10.696;2023-04-03T00:07:03;2.00;99.90
30572;DHT22;17348;50.948;10.696;2023-04-03T00:10:07;2.00;99.90
30572;DHT22;17348;50.948;10.696;2023-04-03T00:13:11;1.90;99.90
30572;DHT22;17348;50.948;10.696;2023-04-03T00:16:13;1.90;99.90
30572;DHT22;17348;50.948;10.696;2023-04-03T00:19:16;1.90;99.90
30572;DHT22;17348;50.948;10.696;2023-04-03T00:22:18;1.80;99.90
30572;DHT22;17348;50.948;10.696;2023-04-03T00:25:20;1.80;99.90
30572;DHT22;17348;50.948;10.696;2023-04-03T00:28:26;1.80;99.90
30572;DHT22;17348;50.948;10.696;2023-04-03T00:31:31;1.80;99.90
30572;DHT22;17348;50.948;10.696;2023-04-03T00:34:34;1.80;99.90
30572;DHT22;17348;50.948;10.696;2023-04-03T00:37:36;1.70;99.90
30572;DHT22;17348;50.948;10.696;2023-04-03T00:40:42;1.70;99.90
30572;DHT22;17348;50.948;10.696;2023-04-03T00:43:46;1.70;99.90
30572;DHT22;17348;50.948;10.696;2023-04-03T00:46:49;1.60;99.90
30572;DHT22;17348;50.948;10.696;2023-04-03T00:49:52;1.60;99.90
30572;DHT22;17348;50.948;10.696;2023-04-03T00:52:56;1.60;99.90
30572;DHT22;17348;50.948;10.696;2023-04-03T00:56:00;1.50;99.90
30572;DHT22;17348;50.948;10.696;2023-04-03T00:59:06;1.50;99.90
30572;DHT22;17348;50.948;10.696;2023-04-03T01:02:10;1.50;99.90
30572;DHT22;17348;50.948;10.696;2023-04-03T01:05:14;1.40;99.90
30572;DHT22;17348;50.948;10.696;2023-04-03T01:08:17;1.40;99.90
30572;DHT22;17348;50.948;10.696;2023-04-03T01:11:19;1.30;99.90
30572;DHT22;17348;50.948;10.696;2023-04-03T01:14:23;1.30;99.90
30572;DHT22;17348;50.948;10.696;2023-04-03T01:17:31;1.30;99.90
30572;DHT22;17348;50.948;10.696;2023-04-03T01:24:28;1.20;99.90
30572;DHT22;17348;50.948;10.696;2023-04-03T01:27:32;1.10;99.90
30572;DHT22;17348;50.948;10.696;2023-04-03T01:30:41;1.00;99.90
30572;DHT22;17348;50.948;10.696;2023-04-03T01:33:46;0.90;99.90
30572;DHT22;17348;50.948;10.696;2023-04-03T01:36:48;0.80;99.90
30572;DHT22;17348;50.948;10.696;2023-04-03T01:39:51;0.70;99.90
30572;DHT22;17348;50.948;10.696;2023-04-03T01:42:53;0.60;99.90
30572;DHT22;17348;50.948;10.696;2023-04-03T01:45:56;0.60;99.90
30572;DHT22;17348;50.948;10.696;2023-04-03T01:49:00;0.60;99.90
30572;DHT22;17348;50.948;10.696;2023-04-03T01:52:02;0.50;99.90
30572;DHT22;17348;50.948;10.696;2023-04-03T01:55:05;0.50;99.90
30572;DHT22;17348;50.948;10.696;2023-04-03T01:58:08;0.40;99.90
30572;DHT22;17348;50.948;10.696;2023-04-03T02:01:10;0.40;99.90
30572;DHT22;17348;50.948;10.696;2023-04-03T02:04:14;0.40;99.90
30572;DHT22;17348;50.948;10.696;2023-04-03T02:07:16;0.30;99.90
30572;DHT22;17348;50.948;10.696;2023-04-03T02:10:18;0.30;99.90
30572;DHT22;17348;50.948;10.696;2023-04-03T02:13:21;0.40;99.90
30572;DHT22;17348;50.948;10.696;2023-04-03T02:16:26;0.30;99.90
30572;DHT22;17348;50.948;10.696;2023-04-03T02:19:31;0.30;99.90
30572;DHT22;17348;50.948;10.696;2023-04-03T02:22:33;0.30;99.90
30572;DHT22;17348;50.948;10.696;2023-04-03T02:25:36;0.30;99.90
30572;DHT22;17348;50.948;10.696;2023-04-03T02:28:39;0.30;99.90
30572;DHT22;17348;50.948;10.696;2023-04-03T02:31:42;0.30;99.90
30572;DHT22;17348;50.948;10.696;2023-04-03T02:34:48;0.30;99.90
30572;DHT22;17348;50.948;10.696;2023-04-03T02:37:50;0.30;99.90
30572;DHT22;17348;50.948;10.696;2023-04-03T02:40:53;0.30;99.90
30572;DHT22;17348;50.948;10.696;2023-04-03T02:43:55;0.30;99.90
30572;DHT22;17348;50.948;10.696;2023-04-03T02:46:57;0.30;99.90
30572;DHT22;17348;50.948;10.696;2023-04-03T02:50:01;0.30;99.90
30572;DHT22;17348;50.948;10.696;2023-04-03T02:53:03;0.30;99.90
30572;DHT22;17348;50.948;10.696;2023-04-03T02:56:06;0.30;99.90
30572;DHT22;17348;50.948;10.696;2023-04-03T02:59:09;0.30;99.90
30572;DHT22;17348;50.948;10.696;2023-04-03T03:02:11;0.30;99.90
30572;DHT22;17348;50.948;10.696;2023-04-03T03:05:15;0.30;99.90
30572;DHT22;17348;50.948;10.696;2023-04-03T03:08:17;0.30;99.90
30572;DHT22;17348;50.948;10.696;2023-04-03T03:11:21;0.30;99.90
30572;DHT22;17348;50.948;10.696;2023-04-03T03:14:23;0.20;99.90
30572;DHT22;17348;50.948;10.696;2023-04-03T03:17:26;0.20;99.90
30572;DHT22;17348;50.948;10.696;2023-04-03T03:20:30;0.20;99.90
30572;DHT22;17348;50.948;10.696;2023-04-03T03:23:32;0.20;99.90
30572;DHT22;17348;50.948;10.696;2023-04-03T03:26:35;0.20;99.90
30572;DHT22;17348;50.948;10.696;2023-04-03T03:29:37;0.20;99.90
30572;DHT22;17348;50.948;10.696;2023-04-03T03:32:40;0.20;99.90
30572;DHT22;17348;50.948;10.696;2023-04-03T03:35:43;0.20;99.90
30572;DHT22;17348;50.948;10.696;2023-04-03T03:38:46;0.20;99.90
30572;DHT22;17348;50.948;10.696;2023-04-03T03:41:48;0.20;99.90
30572;DHT22;17348;50.948;10.696;2023-04-03T03:44:51;0.30;99.90
30572;DHT22;17348;50.948;10.696;2023-04-03T03:47:53;0.20;99.90
30572;DHT22;17348;50.948;10.696;2023-04-03T03:50:57;0.30;99.90
30572;DHT22;17348;50.948;10.696;2023-04-03T03:53:59;0.30;99.90
30572;DHT22;17348;50.948;10.696;2023-04-03T03:57:02;0.30;99.90
30572;DHT22;17348;50.948;10.696;2023-04-03T04:00:06;0.30;99.90
30572;DHT22;17348;50.948;10.696;2023-04-03T04:03:09;0.40;99.90
30572;DHT22;17348;50.948;10.696;2023-04-03T04:06:13;0.40;99.90
30572;DHT22;17348;50.948;10.696;2023-04-03T04:09:15;0.40;99.90
30572;DHT22;17348;50.948;10.696;2023-04-03T04:12:17;0.30;99.90
30572;DHT22;17348;50.948;10.696;2023-04-03T04:15:20;0.30;99.90
30572;DHT22;17348;50.948;10.696;2023-04-03T04:18:24;0.20;99.90
30572;DHT22;17348;50.948;10.696;2023-04-03T04:21:27;0.20;99.90
30572;DHT22;17348;50.948;10.696;2023-04-03T04:24:29;0.30;99.90
30572;DHT22;17348;50.948;10.696;2023-04-03T04:27:32;0.20;99.90
30572;DHT22;17348;50.948;10.696;2023-04-03T04:30:34;0.20;99.90
30572;DHT22;17348;50.948;10.696;2023-04-03T04:33:36;0.20;99.90
30572;DHT22;17348;50.948;10.696;2023-04-03T04:36:40;0.20;99.90
30572;DHT22;17348;50.948;10.696;2023-04-03T04:39:43;0.20;99.90
30572;DHT22;17348;50.948;10.696;2023-04-03T04:42:45;0.20;99.90
30572;DHT22;17348;50.948;10.696;2023-04-03T04:45:48;0.20;99.90
30572;DHT22;17348;50.948;10.696;2023-04-03T04:48:50;0.20;99.90
30572;DHT22;17348;50.948;10.696;2023-04-03T04:51:54;0.20;99.90
30572;DHT22;17348;50.948;10.696;2023-04-03T04:54:56;0.30;99.90
30572;DHT22;17348;50.948;10.696;2023-04-03T04:57:58;0.30;99.90
30572;DHT22;17348;50.948;10.696;2023-04-03T05:01:01;0.30;99.90
30572;DHT22;17348;50.948;10.696;2023-04-03T05:04:04;0.30;99.90
30572;DHT22;17348;50.948;10.696;2023-04-03T05:07:07;0.30;99.90
30572;DHT22;17348;50.948;10.696;2023-04-03T05:10:10;0.30;99.90
30572;DHT22;17348;50.948;10.696;2023-04-03T05:13:14;0.30;99.90
30572;DHT22;17348;50.948;10.696;2023-04-03T05:16:17;0.30;99.90
30572;DHT22;17348;50.948;10.696;2023-04-03T05:19:19;0.30;99.90
30572;DHT22;17348;50.948;10.696;2023-04-03T05:22:23;0.30;99.90
30572;DHT22;17348;50.948;10.696;2023-04-03T05:25:25;0.30;99.90
30572;DHT22;17348;50.948;10.696;2023-04-03T05:28:28;0.40;99.90
30572;DHT22;17348;50.948;10.696;2023-04-03T05:31:30;0.40;99.90
30572;DHT22;17348;50.948;10.696;2023-04-03T05:34:33;0.40;99.90
30572;DHT22;17348;50.948;10.696;2023-04-03T05:37:37;0.40;99.90
30572;DHT22;17348;50.948;10.696;2023-04-03T05:40:39;0.40;99.90
30572;DHT22;17348;50.948;10.696;2023-04-03T05:43:42;0.50;99.90
30572;DHT22;17348;50.948;10.696;2023-04-03T05:46:44;0.50;99.90
30572;DHT22;17348;50.948;10.696;2023-04-03T05:49:47;0.50;99.90
30572;DHT22;17348;50.948;10.696;2023-04-03T05:52:52;0.50;99.90
30572;DHT22;17348;50.948;10.696;2023-04-03T05:55:57;0.50;99.90
30572;DHT22;17348;50.948;10.696;2023-04-03T05:58:59;0.50;99.90
30572;DHT22;17348;50.948;10.696;2023-04-03T06:02:02;0.50;99.90
30572;DHT22;17348;50.948;10.696;2023-04-03T06:05:05;0.50;99.90
30572;DHT22;17348;50.948;10.696;2023-04-03T06:08:09;0.60;99.90
30572;DHT22;17348;50.948;10.696;2023-04-03T06:11:11;0.60;99.90
30572;DHT22;17348;50.948;10.696;2023-04-03T06:14:14;0.80;99.90
30572;DHT22;17348;50.948;10.696;2023-04-03T06:17:17;1.00;99.90
30572;DHT22;17348;50.948;10.696;2023-04-03T06:20:20;1.00;99.90
30572;DHT22;17348;50.948;10.696;2023-04-03T06:23:24;1.10;99.90
30572;DHT22;17348;50.948;10.696;2023-04-03T06:26:27;1.50;99.90
30572;DHT22;17348;50.948;10.696;2023-04-03T06:29:29;1.60;99.90
30572;DHT22;17348;50.948;10.696;2023-04-03T06:32:32;2.40;99.90
30572;DHT22;17348;50.948;10.696;2023-04-03T06:35:34;2.30;99.90
30572;DHT22;17348;50.948;10.696;2023-04-03T06:38:38;2.20;99.90
30572;DHT22;17348;50.948;10.696;2023-04-03T06:41:41;2.20;99.90
30572;DHT22;17348;50.948;10.696;2023-04-03T06:44:43;2.10;99.90
30572;DHT22;17348;50.948;10.696;2023-04-03T06:47:46;2.30;99.90
30572;DHT22;17348;50.948;10.696;2023-04-03T06:50:48;2.30;99.90
30572;DHT22;17348;50.948;10.696;2023-04-03T06:53:53;2.30;99.90
30572;DHT22;17348;50.948;10.696;2023-04-03T06:56:56;3.00;99.90
30572;DHT22;17348;50.948;10.696;2023-04-03T06:59:59;2.80;99.90
30572;DHT22;17348;50.948;10.696;2023-04-03T07:03:01;2.80;99.90
30572;DHT22;17348;50.948;10.696;2023-04-03T07:06:04;2.60;99.90
30572;DHT22;17348;50.948;10.696;2023-04-03T07:09:09;2.40;99.90
30572;DHT22;17348;50.948;10.696;2023-04-03T07:12:12;2.50;99.90
30572;DHT22;17348;50.948;10.696;2023-04-03T07:15:14;2.80;99.90
30572;DHT22;17348;50.948;10.696;2023-04-03T07:18:16;3.40;99.90
30572;DHT22;17348;50.948;10.696;2023-04-03T07:21:19;5.20;99.90
30572;DHT22;17348;50.948;10.696;2023-04-03T07:24:23;4.80;99.90
30572;DHT22;17348;50.948;10.696;2023-04-03T07:27:25;4.40;99.90
30572;DHT22;17348;50.948;10.696;2023-04-03T07:30:28;4.20;99.90
30572;DHT22;17348;50.948;10.696;2023-04-03T07:33:33;3.80;99.90
30572;DHT22;17348;50.948;10.696;2023-04-03T07:36:36;3.50;99.90
30572;DHT22;17348;50.948;10.696;2023-04-03T07:39:43;3.50;99.90
30572;DHT22;17348;50.948;10.696;2023-04-03T07:42:45;3.40;99.90
30572;DHT22;17348;50.948;10.696;2023-04-03T07:45:49;3.20;99.90
30572;DHT22;17348;50.948;10.696;2023-04-03T07:48:51;3.00;99.90
30572;DHT22;17348;50.948;10.696;2023-04-03T07:51:54;2.90;99.90
30572;DHT22;17348;50.948;10.696;2023-04-03T07:54:57;2.90;99.90
30572;DHT22;17348;50.948;10.696;2023-04-03T07:58:00;2.80;99.90
30572;DHT22;17348;50.948;10.696;2023-04-03T08:01:03;2.60;99.90
30572;DHT22;17348;50.948;10.696;2023-04-03T08:04:05;2.80;99.90
30572;DHT22;17348;50.948;10.696;2023-04-03T08:07:08;2.80;99.90
30572;DHT22;17348;50.948;10.696;2023-04-03T08:10:12;2.60;99.90
30572;DHT22;17348;50.948;10.696;2023-04-03T08:13:14;2.50;99.90
30572;DHT22;17348;50.948;10.696;2023-04-03T08:16:20;3.50;99.90
30572;DHT22;17348;50.948;10.696;2023-04-03T08:19:22;4.70;99.90
30572;DHT22;17348;50.948;10.696;2023-04-03T08:22:25;4.20;99.90
30572;DHT22;17348;50.948;10.696;2023-04-03T08:25:29;4.10;99.90
30572;DHT22;17348;50.948;10.696;2023-04-03T08:28:31;4.00;99.90
30572;DHT22;17348;50.948;10.696;2023-04-03T08:31:34;4.30;99.90
30572;DHT22;17348;50.948;10.696;2023-04-03T08:34:36;5.10;99.90
30572;DHT22;17348;50.948;10.696;2023-04-03T08:37:40;5.70;99.90
30572;DHT22;17348;50.948;10.696;2023-04-03T08:40:44;5.40;99.90
30572;DHT22;17348;50.948;10.696;2023-04-03T08:44:07;5.10;99.90
30572;DHT22;17348;50.948;10.696;2023-04-03T08:47:20;4.60;99.90
30572;DHT22;17348;50.948;10.696;2023-04-03T08:50:30;4.10;99.90
30572;DHT22;17348;50.948;10.696;2023-04-03T08:53:35;3.70;99.90
30572;DHT22;17348;50.948;10.696;2023-04-03T08:56:40;3.40;99.90
30572;DHT22;17348;50.948;10.696;2023-04-03T08:59:43;3.20;99.90
30572;DHT22;17348;50.948;10.696;2023-04-03T09:02:46;3.00;99.90
30572;DHT22;17348;50.948;10.696;2023-04-03T09:05:52;3.10;99.90
30572;DHT22;17348;50.948;10.696;2023-04-03T09:09:06;3.30;99.90
30572;DHT22;17348;50.948;10.696;2023-04-03T09:12:18;3.60;99.90
30572;DHT22;17348;50.948;10.696;2023-04-03T09:15:23;3.80;99.90
30572;DHT22;17348;50.948;10.696;2023-04-03T09:18:30;4.10;99.90
30572;DHT22;17348;50.948;10.696;2023-04-03T09:21:37;4.50;99.90
30572;DHT22;17348;50.948;10.696;2023-04-03T09:24:40;4.60;99.90
30572;DHT22;17348;50.948;10.696;2023-04-03T09:27:44;4.60;99.90
30572;DHT22;17348;50.948;10.696;2023-04-03T09:30:47;4.70;99.90
30572;DHT22;17348;50.948;10.696;2023-04-03T09:33:50;4.90;99.90
30572;DHT22;17348;50.948;10.696;2023-04-03T09:36:55;5.10;99.90
30572;DHT22;17348;50.948;10.696;2023-04-03T09:39:58;5.20;99.90
30572;DHT22;17348;50.948;10.696;2023-04-03T09:43:23;5.50;99.90
30572;DHT22;17348;50.948;10.696;2023-04-03T09:46:30;5.60;99.90
30572;DHT22;17348;50.948;10.696;2023-04-03T09:49:33;5.70;99.90
30572;DHT22;17348;50.948;10.696;2023-04-03T09:52:36;5.70;99.90
30572;DHT22;17348;50.948;10.696;2023-04-03T09:55:42;5.80;99.90
30572;DHT22;17348;50.948;10.696;2023-04-03T09:58:48;5.70;99.90
30572;DHT22;17348;50.948;10.696;2023-04-03T10:02:02;5.20;99.90
30572;DHT22;17348;50.948;10.696;2023-04-03T10:05:27;5.00;99.90
30572;DHT22;17348;50.948;10.696;2023-04-03T10:08:31;4.70;99.90
30572;DHT22;17348;50.948;10.696;2023-04-03T10:11:34;4.50;99.90
30572;DHT22;17348;50.948;10.696;2023-04-03T10:14:39;4.40;99.90
30572;DHT22;17348;50.948;10.696;2023-04-03T10:17:50;4.30;99.90
30572;DHT22;17348;50.948;10.696;2023-04-03T10:20:58;4.30;99.90
30572;DHT22;17348;50.948;10.696;2023-04-03T10:24:10;4.20;99.90
30572;DHT22;17348;50.948;10.696;2023-04-03T10:27:18;4.20;99.90
30572;DHT22;17348;50.948;10.696;2023-04-03T10:30:32;4.10;99.90
30572;DHT22;17348;50.948;10.696;2023-04-03T10:33:43;4.00;99.90
30572;DHT22;17348;50.948;10.696;2023-04-03T10:36:54;4.00;99.90
30572;DHT22;17348;50.948;10.696;2023-04-03T10:40:10;4.10;99.90
30572;DHT22;17348;50.948;10.696;2023-04-03T10:43:20;4.10;99.90
30572;DHT22;17348;50.948;10.696;2023-04-03T10:46:28;4.10;99.90
30572;DHT22;17348;50.948;10.696;2023-04-03T10:49:42;4.30;99.90
30572;DHT22;17348;50.948;10.696;2023-04-03T10:52:52;4.30;99.90
30572;DHT22;17348;50.948;10.696;2023-04-03T10:56:03;4.40;99.90
30572;DHT22;17348;50.948;10.696;2023-04-03T10:59:27;4.40;99.90
30572;DHT22;17348;50.948;10.696;2023-04-03T11:02:37;4.40;99.90
30572;DHT22;17348;50.948;10.696;2023-04-03T11:05:44;4.30;99.90
30572;DHT22;17348;50.948;10.696;2023-04-03T11:08:50;4.30;99.90
30572;DHT22;17348;50.948;10.696;2023-04-03T11:12:00;4.40;99.90
30572;DHT22;17348;50.948;10.696;2023-04-03T11:15:05;4.50;99.90
30572;DHT22;17348;50.948;10.696;2023-04-03T11:18:14;4.50;99.90
30572;DHT22;17348;50.948;10.696;2023-04-03T11:21:20;4.40;99.90
30572;DHT22;17348;50.948;10.696;2023-04-03T11:24:25;4.50;99.90
30572;DHT22;17348;50.948;10.696;2023-04-03T11:27:35;4.90;99.90
30572;DHT22;17348;50.948;10.696;2023-04-03T11:30:45;5.30;99.90
30572;DHT22;17348;50.948;10.696;2023-04-03T11:33:58;5.60;99.90
30572;DHT22;17348;50.948;10.696;2023-04-03T11:37:13;5.60;99.90
30572;DHT22;17348;50.948;10.696;2023-04-03T11:40:22;5.40;99.90
30572;DHT22;17348;50.948;10.696;2023-04-03T11:43:28;5.40;99.90
30572;DHT22;17348;50.948;10.696;2023-04-03T11:46:52;5.40;99.90
30572;DHT22;17348;50.948;10.696;2023-04-03T11:49:59;5.20;99.90
30572;DHT22;17348;50.948;10.696;2023-04-03T11:53:12;5.10;99.90
30572;DHT22;17348;50.948;10.696;2023-04-03T11:56:29;5.00;99.90
30572;DHT22;17348;50.948;10.696;2023-04-03T11:59:37;5.00;99.90
30572;DHT22;17348;50.948;10.696;2023-04-03T12:02:39;5.10;99.90
30572;DHT22;17348;50.948;10.696;2023-04-03T12:05:43;5.20;99.90
30572;DHT22;17348;50.948;10.696;2023-04-03T12:08:47;5.10;99.90
30572;DHT22;17348;50.948;10.696;2023-04-03T12:11:52;4.90;99.90
30572;DHT22;17348;50.948;10.696;2023-04-03T12:14:55;5.00;99.90
30572;DHT22;17348;50.948;10.696;2023-04-03T12:17:59;5.30;99.90
30572;DHT22;17348;50.948;10.696;2023-04-03T12:21:03;5.50;99.90
30572;DHT22;17348;50.948;10.696;2023-04-03T12:24:24;5.80;99.90
30572;DHT22;17348;50.948;10.696;2023-04-03T12:27:30;6.10;99.90
30572;DHT22;17348;50.948;10.696;2023-04-03T12:30:35;6.00;99.90
30572;DHT22;17348;50.948;10.696;2023-04-03T12:34:00;6.10;99.90
30572;DHT22;17348;50.948;10.696;2023-04-03T12:37:19;6.30;99.90
30572;DHT22;17348;50.948;10.696;2023-04-03T12:40:27;6.30;99.90
30572;DHT22;17348;50.948;10.696;2023-04-03T12:43:42;6.20;99.90
30572;DHT22;17348;50.948;10.696;2023-04-03T12:46:49;6.10;99.90
30572;DHT22;17348;50.948;10.696;2023-04-03T12:49:53;5.80;99.90
30572;DHT22;17348;50.948;10.696;2023-04-03T12:52:59;5.80;99.90
30572;DHT22;17348;50.948;10.696;2023-04-03T12:56:21;5.80;99.90
30572;DHT22;17348;50.948;10.696;2023-04-03T12:59:25;5.90;99.90
30572;DHT22;17348;50.948;10.696;2023-04-03T13:02:30;5.90;99.90
30572;DHT22;17348;50.948;10.696;2023-04-03T13:05:34;5.80;99.90
30572;DHT22;17348;50.948;10.696;2023-04-03T13:08:48;5.60;99.90
30572;DHT22;17348;50.948;10.696;2023-04-03T13:11:55;5.70;99.90
30572;DHT22;17348;50.948;10.696;2023-04-03T13:15:02;5.80;99.90
30572;DHT22;17348;50.948;10.696;2023-04-03T13:18:05;6.00;99.90
30572;DHT22;17348;50.948;10.696;2023-04-03T13:21:13;6.00;99.90
30572;DHT22;17348;50.948;10.696;2023-04-03T13:24:18;6.00;99.90
30572;DHT22;17348;50.948;10.696;2023-04-03T13:27:21;5.90;99.90
30572;DHT22;17348;50.948;10.696;2023-04-03T13:30:27;5.60;99.90
30572;DHT22;17348;50.948;10.696;2023-04-03T13:33:32;5.60;99.90
30572;DHT22;17348;50.948;10.696;2023-04-03T13:36:40;5.50;99.90
30572;DHT22;17348;50.948;10.696;2023-04-03T13:39:44;5.60;99.90
30572;DHT22;17348;50.948;10.696;2023-04-03T13:42:59;5.90;99.90
30572;DHT22;17348;50.948;10.696;2023-04-03T13:46:23;5.90;99.90
30572;DHT22;17348;50.948;10.696;2023-04-03T13:49:33;5.70;99.90
30572;DHT22;17348;50.948;10.696;2023-04-03T13:52:41;5.60;99.90
30572;DHT22;17348;50.948;10.696;2023-04-03T13:55:56;5.80;99.90
30572;DHT22;17348;50.948;10.696;2023-04-03T13:59:04;6.00;99.90
30572;DHT22;17348;50.948;10.696;2023-04-03T14:02:14;6.00;99.90
30572;DHT22;17348;50.948;10.696;2023-04-03T14:05:18;5.90;99.90
30572;DHT22;17348;50.948;10.696;2023-04-03T14:08:22;5.90;99.90
30572;DHT22;17348;50.948;10.696;2023-04-03T14:11:29;5.90;99.90
30572;DHT22;17348;50.948;10.696;2023-04-03T14:14:34;6.00;99.90
30572;DHT22;17348;50.948;10.696;2023-04-03T14:17:36;6.00;99.90
30572;DHT22;17348;50.948;10.696;2023-04-03T14:20:40;6.00;99.90
30572;DHT22;17348;50.948;10.696;2023-04-03T14:23:43;5.80;99.90
30572;DHT22;17348;50.948;10.696;2023-04-03T14:26:47;5.60;99.90
30572;DHT22;17348;50.948;10.696;2023-04-03T14:29:52;5.60;99.90
30572;DHT22;17348;50.948;10.696;2023-04-03T14:32:55;5.70;99.90
30572;DHT22;17348;50.948;10.696;2023-04-03T14:35:58;5.90;99.90
30572;DHT22;17348;50.948;10.696;2023-04-03T14:39:00;6.20;99.90
30572;DHT22;17348;50.948;10.696;2023-04-03T14:42:05;6.10;99.90
30572;DHT22;17348;50.948;10.696;2023-04-03T14:45:10;6.00;99.90
30572;DHT22;17348;50.948;10.696;2023-04-03T14:48:17;5.80;99.90
30572;DHT22;17348;50.948;10.696;2023-04-03T14:51:20;5.60;99.90
30572;DHT22;17348;50.948;10.696;2023-04-03T14:54:23;5.40;99.90
30572;DHT22;17348;50.948;10.696;2023-04-03T14:57:30;5.20;99.90
30572;DHT22;17348;50.948;10.696;2023-04-03T15:00:32;5.30;99.90
30572;DHT22;17348;50.948;10.696;2023-04-03T15:03:35;5.50;99.90
30572;DHT22;17348;50.948;10.696;2023-04-03T15:06:37;5.50;99.90
30572;DHT22;17348;50.948;10.696;2023-04-03T15:09:39;5.20;99.90
30572;DHT22;17348;50.948;10.696;2023-04-03T15:12:44;5.10;99.90
30572;DHT22;17348;50.948;10.696;2023-04-03T15:15:47;5.20;99.90
30572;DHT22;17348;50.948;10.696;2023-04-03T15:18:50;5.40;99.90
30572;DHT22;17348;50.948;10.696;2023-04-03T15:21:52;5.60;99.90
30572;DHT22;17348;50.948;10.696;2023-04-03T15:24:54;5.70;99.90
30572;DHT22;17348;50.948;10.696;2023-04-03T15:27:59;5.70;99.90
30572;DHT22;17348;50.948;10.696;2023-04-03T15:31:02;5.60;99.90
30572;DHT22;17348;50.948;10.696;2023-04-03T15:34:05;5.40;99.90
30572;DHT22;17348;50.948;10.696;2023-04-03T15:37:07;5.30;99.90
30572;DHT22;17348;50.948;10.696;2023-04-03T15:40:10;5.40;99.90
30572;DHT22;17348;50.948;10.696;2023-04-03T15:43:15;5.50;99.90
30572;DHT22;17348;50.948;10.696;2023-04-03T15:46:17;5.50;99.90
30572;DHT22;17348;50.948;10.696;2023-04-03T15:49:21;5.30;99.90
30572;DHT22;17348;50.948;10.696;2023-04-03T15:52:24;5.20;99.90
30572;DHT22;17348;50.948;10.696;2023-04-03T15:55:27;5.10;99.90
30572;DHT22;17348;50.948;10.696;2023-04-03T15:58:31;5.00;99.90
30572;DHT22;17348;50.948;10.696;2023-04-03T16:01:34;5.10;99.90
30572;DHT22;17348;50.948;10.696;2023-04-03T16:04:36;5.10;99.90
30572;DHT22;17348;50.948;10.696;2023-04-03T16:07:39;5.20;99.90
30572;DHT22;17348;50.948;10.696;2023-04-03T16:10:42;5.00;99.90
30572;DHT22;17348;50.948;10.696;2023-04-03T16:13:47;4.90;99.90
30572;DHT22;17348;50.948;10.696;2023-04-03T16:16:50;4.80;99.90
30572;DHT22;17348;50.948;10.696;2023-04-03T16:19:52;4.80;99.90
30572;DHT22;17348;50.948;10.696;2023-04-03T16:22:56;4.80;99.90
30572;DHT22;17348;50.948;10.696;2023-04-03T16:25:59;4.80;99.90
30572;DHT22;17348;50.948;10.696;2023-04-03T16:29:03;4.70;99.90
30572;DHT22;17348;50.948;10.696;2023-04-03T16:32:06;4.70;99.90
30572;DHT22;17348;50.948;10.696;2023-04-03T16:35:10;4.70;99.90
30572;DHT22;17348;50.948;10.696;2023-04-03T16:38:12;4.70;99.90
30572;DHT22;17348;50.948;10.696;2023-04-03T16:41:15;4.60;99.90
30572;DHT22;17348;50.948;10.696;2023-04-03T16:44:18;4.60;99.90
30572;DHT22;17348;50.948;10.696;2023-04-03T16:47:21;4.80;99.90
30572;DHT22;17348;50.948;10.696;2023-04-03T16:50:23;4.80;99.90
30572;DHT22;17348;50.948;10.696;2023-04-03T16:53:26;4.80;99.90
30572;DHT22;17348;50.948;10.696;2023-04-03T16:56:29;4.70;99.90
30572;DHT22;17348;50.948;10.696;2023-04-03T16:59:33;4.60;99.90
30572;DHT22;17348;50.948;10.696;2023-04-03T17:02:35;4.60;99.90
30572;DHT22;17348;50.948;10.696;2023-04-03T17:05:38;4.60;99.90
30572;DHT22;17348;50.948;10.696;2023-04-03T17:08:40;4.50;99.90
30572;DHT22;17348;50.948;10.696;2023-04-03T17:11:43;4.50;99.90
30572;DHT22;17348;50.948;10.696;2023-04-03T17:14:47;4.40;99.90
30572;DHT22;17348;50.948;10.696;2023-04-03T17:17:51;4.30;99.90
30572;DHT22;17348;50.948;10.696;2023-04-03T17:20:55;4.20;99.90
30572;DHT22;17348;50.948;10.696;2023-04-03T17:24:00;4.20;99.90
30572;DHT22;17348;50.948;10.696;2023-04-03T17:27:04;4.20;99.90
30572;DHT22;17348;50.948;10.696;2023-04-03T17:30:09;4.10;99.90
30572;DHT22;17348;50.948;10.696;2023-04-03T17:33:11;4.10;99.90
30572;DHT22;17348;50.948;10.696;2023-04-03T17:36:14;4.10;99.90
30572;DHT22;17348;50.948;10.696;2023-04-03T17:39:16;4.00;99.90
30572;DHT22;17348;50.948;10.696;2023-04-03T17:42:18;4.00;99.90
30572;DHT22;17348;50.948;10.696;2023-04-03T17:45:22;3.90;99.90
30572;DHT22;17348;50.948;10.696;2023-04-03T17:48:25;3.90;99.90
30572;DHT22;17348;50.948;10.696;2023-04-03T17:51:27;3.90;99.90
30572;DHT22;17348;50.948;10.696;2023-04-03T17:54:30;3.80;99.90
30572;DHT22;17348;50.948;10.696;2023-04-03T17:57:32;3.80;99.90
30572;DHT22;17348;50.948;10.696;2023-04-03T18:00:36;3.80;99.90
30572;DHT22;17348;50.948;10.696;2023-04-03T18:03:39;3.70;99.90
30572;DHT22;17348;50.948;10.696;2023-04-03T18:06:44;3.70;99.90
30572;DHT22;17348;50.948;10.696;2023-04-03T18:09:48;3.70;99.90
30572;DHT22;17348;50.948;10.696;2023-04-03T18:12:52;3.60;99.90
30572;DHT22;17348;50.948;10.696;2023-04-03T18:15:56;3.60;99.90
30572;DHT22;17348;50.948;10.696;2023-04-03T18:18:59;3.60;99.90
30572;DHT22;17348;50.948;10.696;2023-04-03T18:22:04;3.70;99.90
30572;DHT22;17348;50.948;10.696;2023-04-03T18:25:10;3.70;99.90
30572;DHT22;17348;50.948;10.696;2023-04-03T18:28:14;3.60;99.90
30572;DHT22;17348;50.948;10.696;2023-04-03T18:31:18;3.60;99.90
30572;DHT22;17348;50.948;10.696;2023-04-03T18:34:21;3.60;99.90
30572;DHT22;17348;50.948;10.696;2023-04-03T18:37:23;3.60;99.90
30572;DHT22;17348;50.948;10.696;2023-04-03T18:40:26;3.50;99.90
30572;DHT22;17348;50.948;10.696;2023-04-03T18:43:28;3.50;99.90
30572;DHT22;17348;50.948;10.696;2023-04-03T18:46:32;3.50;99.90
30572;DHT22;17348;50.948;10.696;2023-04-03T18:49:39;3.40;99.90
30572;DHT22;17348;50.948;10.696;2023-04-03T18:52:42;3.50;99.90
30572;DHT22;17348;50.948;10.696;2023-04-03T18:55:46;3.50;99.90
30572;DHT22;17348;50.948;10.696;2023-04-03T18:58:49;3.50;99.90
30572;DHT22;17348;50.948;10.696;2023-04-03T19:01:53;3.50;99.90
30572;DHT22;17348;50.948;10.696;2023-04-03T19:04:55;3.50;99.90
30572;DHT22;17348;50.948;10.696;2023-04-03T19:07:58;3.50;99.90
30572;DHT22;17348;50.948;10.696;2023-04-03T19:11:01;3.50;99.90
30572;DHT22;17348;50.948;10.696;2023-04-03T19:14:03;3.40;99.90
30572;DHT22;17348;50.948;10.696;2023-04-03T19:17:09;3.40;99.90
30572;DHT22;17348;50.948;10.696;2023-04-03T19:20:12;3.40;99.90
30572;DHT22;17348;50.948;10.696;2023-04-03T19:23:15;3.40;99.90
30572;DHT22;17348;50.948;10.696;2023-04-03T19:26:17;3.30;99.90
30572;DHT22;17348;50.948;10.696;2023-04-03T19:29:20;3.40;99.90